X  Cerrar Datos meteorológicos de aviación METAR     LEAL Alicante-Elche Miguel Hernández Airport
Temperatura
11°C Temperatura
8°C Punto de rocío
82% Humedad



Viento
2 KM/H
1 MPH
0 M/S
1 NUDO



280°
O
Condiciones actuales

Claro Claro
Presión 1012.87 (hPa) - 29.91 (inHg)
Visibilidad 6 (milla) - 9.7 (km)
Aeropuerto
Código de aeropuerto LEAL

Localidad: Alicante-Elche Miguel Hernández Airport
Distancia: 60 (km)

Metar:
LEAL 220500Z 28001KT CAVOK 11/08 Q1013 NOSIG

Hora: 22-04-2024 07:00 CEST